Time;durP1;ratioP1;P1;durP2;ratioP2;P2;SDS_P1;SDS_P2;PMS_P1;PMS_P2;Temp;Humidity;BMP_temperature;BMP_pressure;BME280_temperature;BME280_humidity;BME280_pressure;Samples;Min_cycle;Max_cycle;Signal;HPM_P1;HPM_P2
2023/10/05 00:00:57;;;;;;;3.28;3.17;;;;;;;;;;6024136;29;20112;-88
2023/10/05 00:03:59;;;;;;;4.32;4.22;;;;;;;;;;6014944;29;20801;-88
2023/10/05 00:07:00;;;;;;;4.25;4.05;;;;;;;;;;6016165;29;20069;-88
2023/10/05 00:10:03;;;;;;;3.67;3.58;;;;;;;;;;5997788;29;20493;-88
2023/10/05 00:13:05;;;;;;;3.70;3.60;;;;;;;;;;6019158;29;20132;-88
2023/10/05 00:16:07;;;;;;;3.20;3.10;;;;;;;;;;6025314;29;20049;-88
2023/10/05 00:19:17;;;;;;;2.90;2.80;;;;;;;;;;6020589;29;20049;-88
2023/10/05 00:22:20;;;;;;;2.90;2.80;;;;;;;;;;6028950;29;20080;-88
2023/10/05 00:25:23;;;;;;;2.78;2.67;;;;;;;;;;6017391;29;20052;-88
2023/10/05 00:28:25;;;;;;;3.25;3.15;;;;;;;;;;6024447;29;20057;-87
2023/10/05 00:31:27;;;;;;;2.92;2.83;;;;;;;;;;6038926;29;20549;-88
2023/10/05 00:34:30;;;;;;;3.10;3.00;;;;;;;;;;6020115;29;20045;-87
2023/10/05 00:37:34;;;;;;;2.97;2.88;;;;;;;;;;6017960;29;20049;-88
2023/10/05 00:40:38;;;;;;;3.15;3.05;;;;;;;;;;6013795;29;20121;-88
2023/10/05 00:43:40;;;;;;;2.90;2.80;;;;;;;;;;6028272;29;20049;-88
2023/10/05 00:46:48;;;;;;;2.85;2.80;;;;;;;;;;6018790;29;20046;-88
2023/10/05 00:49:58;;;;;;;3.08;2.97;;;;;;;;;;6035952;29;20551;-88
2023/10/05 00:53:01;;;;;;;3.40;3.30;;;;;;;;;;6017816;29;20077;-88
2023/10/05 00:56:12;;;;;;;3.20;3.10;;;;;;;;;;6037090;29;20050;-87
2023/10/05 00:59:20;;;;;;;3.35;3.25;;;;;;;;;;6021961;29;20069;-88
2023/10/05 01:02:23;;;;;;;3.53;3.42;;;;;;;;;;6018596;29;20420;-88
2023/10/05 01:05:34;;;;;;;3.28;3.17;;;;;;;;;;6016685;29;20077;-88
2023/10/05 01:08:48;;;;;;;;;;;;;;;;;;6037657;29;20053;-88
2023/10/05 01:12:12;;;;;;;2.67;2.65;;;;;;;;;;6012002;29;19928;-88
2023/10/05 01:15:21;;;;;;;3.50;3.30;;;;;;;;;;6009566;29;20045;-88
2023/10/05 01:18:27;;;;;;;3.20;3.10;;;;;;;;;;6023522;29;20053;-88
2023/10/05 01:21:29;;;;;;;3.70;3.60;;;;;;;;;;6025377;29;20641;-87
2023/10/05 01:24:30;;;;;;;2.55;2.55;;;;;;;;;;6022850;29;20513;-88
2023/10/05 01:27:32;;;;;;;2.97;2.88;;;;;;;;;;6023087;29;20065;-88
2023/10/05 01:30:37;;;;;;;3.35;3.25;;;;;;;;;;6029801;29;20474;-88
2023/10/05 01:33:39;;;;;;;3.22;3.13;;;;;;;;;;6028225;29;20046;-88
2023/10/05 01:36:42;;;;;;;3.28;3.17;;;;;;;;;;6025386;29;20045;-87
2023/10/05 01:39:44;;;;;;;3.30;3.10;;;;;;;;;;6026037;29;20045;-88
2023/10/05 01:42:51;;;;;;;2.97;2.88;;;;;;;;;;6023879;29;20041;-87
2023/10/05 01:45:54;;;;;;;3.42;3.33;;;;;;;;;;6027530;29;20052;-88
2023/10/05 01:48:56;;;;;;;3.10;3.00;;;;;;;;;;6036653;29;20400;-88
2023/10/05 01:51:59;;;;;;;2.97;2.88;;;;;;;;;;6027602;29;20056;-88
2023/10/05 01:55:01;;;;;;;3.17;3.08;;;;;;;;;;6027206;29;20424;-88
2023/10/05 01:58:07;;;;;;;2.70;2.70;;;;;;;;;;6026616;29;20057;-88
2023/10/05 02:01:10;;;;;;;3.03;2.92;;;;;;;;;;6024409;29;20058;-87
2023/10/05 02:04:14;;;;;;;3.67;3.55;;;;;;;;;;6025594;29;20098;-88
2023/10/05 02:07:16;;;;;;;3.45;3.35;;;;;;;;;;6042394;29;20054;-88
2023/10/05 02:10:21;;;;;;;3.65;3.05;;;;;;;;;;6042651;29;20053;-87
2023/10/05 02:13:23;;;;;;;3.40;3.20;;;;;;;;;;6017471;29;20584;-88
2023/10/05 02:16:26;;;;;;;3.15;3.05;;;;;;;;;;6023263;29;20048;-88
2023/10/05 02:19:28;;;;;;;3.10;3.00;;;;;;;;;;6024987;29;20132;-88
2023/10/05 02:22:30;;;;;;;2.97;2.88;;;;;;;;;;6015916;29;20089;-88
2023/10/05 02:25:37;;;;;;;3.63;3.45;;;;;;;;;;6034515;29;20426;-88
2023/10/05 02:28:41;;;;;;;3.05;2.95;;;;;;;;;;6027167;29;20064;-88
2023/10/05 02:35:24;;;;;;;3.13;3.03;;;;;;;;;;6029465;29;20092;-88
2023/10/05 02:38:26;;;;;;;3.40;3.28;;;;;;;;;;6020535;29;20214;-88
2023/10/05 02:41:40;;;;;;;3.35;2.95;;;;;;;;;;6028162;29;20053;-87
2023/10/05 02:44:44;;;;;;;2.58;2.58;;;;;;;;;;6017032;29;20457;-88
2023/10/05 02:47:51;;;;;;;3.08;2.97;;;;;;;;;;6024211;29;20521;-88
2023/10/05 02:50:53;;;;;;;3.08;2.97;;;;;;;;;;6020477;29;20413;-88
2023/10/05 02:53:58;;;;;;;3.10;3.00;;;;;;;;;;6021160;29;20045;-88
2023/10/05 02:56:59;;;;;;;3.28;3.17;;;;;;;;;;6013340;29;20423;-88
2023/10/05 03:00:01;;;;;;;3.60;3.47;;;;;;;;;;6022820;29;20587;-88
2023/10/05 03:03:04;;;;;;;3.85;3.75;;;;;;;;;;6022157;29;20488;-87
2023/10/05 03:06:10;;;;;;;3.00;2.90;;;;;;;;;;6022661;29;20385;-87
2023/10/05 03:09:12;;;;;;;3.40;3.10;;;;;;;;;;6038724;29;20076;-87
2023/10/05 03:12:14;;;;;;;2.85;2.75;;;;;;;;;;6025455;29;20059;-88
2023/10/05 03:15:20;;;;;;;2.85;2.75;;;;;;;;;;6020388;29;20144;-87
2023/10/05 03:18:25;;;;;;;2.85;2.75;;;;;;;;;;6029675;29;20516;-87
2023/10/05 03:21:27;;;;;;;3.08;2.97;;;;;;;;;;6020268;29;20076;-87
2023/10/05 03:24:30;;;;;;;3.33;3.22;;;;;;;;;;6017703;29;20049;-88
2023/10/05 03:27:31;;;;;;;3.13;3.03;;;;;;;;;;6019186;29;20624;-88
2023/10/05 03:30:35;;;;;;;3.10;3.00;;;;;;;;;;6028604;29;20047;-88
2023/10/05 03:33:39;;;;;;;2.47;2.47;;;;;;;;;;6032873;29;20469;-88
2023/10/05 03:36:47;;;;;;;3.53;3.20;;;;;;;;;;6027541;29;20585;-87
2023/10/05 03:39:52;;;;;;;3.10;3.00;;;;;;;;;;6030925;29;20045;-87
2023/10/05 03:42:59;;;;;;;3.17;3.08;;;;;;;;;;6018888;29;20529;-88
2023/10/05 03:46:06;;;;;;;5.60;3.53;;;;;;;;;;6023592;29;20282;-86
2023/10/05 03:49:09;;;;;;;3.20;3.10;;;;;;;;;;6028524;29;20049;-87
2023/10/05 03:52:13;;;;;;;3.15;3.05;;;;;;;;;;6017636;29;20061;-88
2023/10/05 03:55:21;;;;;;;3.03;2.92;;;;;;;;;;6020662;29;20141;-88
2023/10/05 03:58:26;;;;;;;3.10;3.00;;;;;;;;;;6027293;29;20057;-88
2023/10/05 04:01:28;;;;;;;5.07;3.03;;;;;;;;;;6017732;29;20087;-87
2023/10/05 04:04:35;;;;;;;3.50;3.40;;;;;;;;;;6032680;29;20431;-88
2023/10/05 04:07:40;;;;;;;18.40;3.20;;;;;;;;;;6022944;29;20049;-87
2023/10/05 04:10:50;;;;;;;2.90;2.83;;;;;;;;;;6021204;29;20088;-87
2023/10/05 04:13:53;;;;;;;3.45;3.35;;;;;;;;;;6019331;29;20453;-88
2023/10/05 04:16:59;;;;;;;12.27;3.63;;;;;;;;;;6022823;29;20426;-87
2023/10/05 04:20:01;;;;;;;3.10;3.00;;;;;;;;;;6014533;29;20071;-87
2023/10/05 04:23:03;;;;;;;3.47;3.38;;;;;;;;;;6021130;29;20413;-88
2023/10/05 04:26:08;;;;;;;3.30;3.20;;;;;;;;;;6020816;29;20071;-87
2023/10/05 04:29:14;;;;;;;3.60;3.30;;;;;;;;;;6021307;29;20413;-87
2023/10/05 04:32:17;;;;;;;4.00;3.83;;;;;;;;;;6025501;29;20037;-87
2023/10/05 04:35:32;;;;;;;3.45;3.35;;;;;;;;;;6018832;29;20121;-88
2023/10/05 04:38:34;;;;;;;3.75;3.65;;;;;;;;;;6010391;29;20077;-88
2023/10/05 04:41:36;;;;;;;3.90;3.50;;;;;;;;;;6022664;29;20050;-87
2023/10/05 04:44:40;;;;;;;3.30;3.20;;;;;;;;;;6025117;29;20049;-87
2023/10/05 04:47:41;;;;;;;3.80;3.60;;;;;;;;;;6023623;29;20041;-87
2023/10/05 04:50:43;;;;;;;2.92;2.83;;;;;;;;;;6014114;29;20053;-87
2023/10/05 04:53:48;;;;;;;3.35;3.25;;;;;;;;;;6016741;29;20053;-87
2023/10/05 05:00:48;;;;;;;3.90;3.08;;;;;;;;;;6023104;29;20041;-88
2023/10/05 05:03:48;;;;;;;3.42;3.33;;;;;;;;;;6024370;29;20046;-87
2023/10/05 05:06:53;;;;;;;4.25;3.85;;;;;;;;;;6028521;29;20397;-88
2023/10/05 05:09:59;;;;;;;3.45;3.25;;;;;;;;;;6025134;29;20053;-88
2023/10/05 05:13:04;;;;;;;5.78;5.57;;;;;;;;;;6027779;29;20049;-87
2023/10/05 05:16:07;;;;;;;3.47;3.38;;;;;;;;;;6021676;29;20057;-88
2023/10/05 05:19:10;;;;;;;2.90;2.80;;;;;;;;;;6029423;29;20076;-87
2023/10/05 05:22:13;;;;;;;3.05;2.95;;;;;;;;;;6032853;29;20509;-87
2023/10/05 05:25:19;;;;;;;3.38;3.28;;;;;;;;;;6028043;29;20136;-87
2023/10/05 05:28:21;;;;;;;3.50;3.40;;;;;;;;;;6034093;29;20061;-87
2023/10/05 05:31:23;;;;;;;4.07;3.97;;;;;;;;;;6033134;29;20327;-87
2023/10/05 05:34:25;;;;;;;3.28;3.17;;;;;;;;;;6019110;29;20119;-87
2023/10/05 05:37:30;;;;;;;3.08;2.88;;;;;;;;;;6029048;29;20516;-87
2023/10/05 05:40:34;;;;;;;3.53;3.33;;;;;;;;;;6025040;29;20046;-87
2023/10/05 05:43:35;;;;;;;3.40;3.30;;;;;;;;;;6026248;29;20077;-87
2023/10/05 05:46:37;;;;;;;2.75;2.75;;;;;;;;;;6036785;29;20057;-87
2023/10/05 05:49:45;;;;;;;3.00;2.90;;;;;;;;;;6028062;29;20128;-87
2023/10/05 05:52:47;;;;;;;7.88;3.35;;;;;;;;;;6021964;29;20045;-87
2023/10/05 05:56:01;;;;;;;3.13;3.03;;;;;;;;;;6031361;29;20072;-87
2023/10/05 05:59:02;;;;;;;2.58;2.58;;;;;;;;;;6022523;29;20508;-87
2023/10/05 06:02:11;;;;;;;3.03;2.92;;;;;;;;;;6022136;29;20044;-87
2023/10/05 06:05:13;;;;;;;4.65;3.70;;;;;;;;;;6027844;29;20053;-86
2023/10/05 06:08:16;;;;;;;3.35;3.25;;;;;;;;;;6022653;29;20053;-86
2023/10/05 06:11:19;;;;;;;2.88;2.83;;;;;;;;;;6029099;29;20565;-87
2023/10/05 06:14:21;;;;;;;2.88;2.78;;;;;;;;;;6026132;29;20045;-87
2023/10/05 06:17:23;;;;;;;3.28;3.17;;;;;;;;;;6031633;29;20049;-87
2023/10/05 06:20:25;;;;;;;3.25;3.15;;;;;;;;;;6024918;29;20049;-87
2023/10/05 06:23:27;;;;;;;3.30;3.20;;;;;;;;;;6030014;29;20042;-87
2023/10/05 06:26:31;;;;;;;3.63;3.40;;;;;;;;;;6024534;29;20045;-87
2023/10/05 06:29:36;;;;;;;3.08;2.97;;;;;;;;;;6021264;29;20175;-87
2023/10/05 06:32:38;;;;;;;2.92;2.83;;;;;;;;;;6023829;29;20084;-86
2023/10/05 06:35:40;;;;;;;6.15;3.08;;;;;;;;;;6021955;29;20061;-86
2023/10/05 06:38:43;;;;;;;2.97;2.88;;;;;;;;;;6028925;29;20045;-87
2023/10/05 06:41:45;;;;;;;3.67;3.58;;;;;;;;;;6019105;29;20189;-86
2023/10/05 06:44:48;;;;;;;2.90;2.80;;;;;;;;;;6030745;29;20427;-87
2023/10/05 06:47:51;;;;;;;3.20;3.10;;;;;;;;;;6027450;29;20110;-87
2023/10/05 06:50:56;;;;;;;3.35;3.25;;;;;;;;;;6025440;29;20054;-87
2023/10/05 06:53:58;;;;;;;3.20;3.10;;;;;;;;;;6019238;29;20049;-87
2023/10/05 06:57:00;;;;;;;3.10;3.00;;;;;;;;;;6020376;29;20048;-87
2023/10/05 07:00:11;;;;;;;3.40;3.30;;;;;;;;;;6028202;29;20045;-87
2023/10/05 07:03:13;;;;;;;3.28;3.17;;;;;;;;;;6026034;29;20049;-86
2023/10/05 07:06:15;;;;;;;3.15;3.05;;;;;;;;;;6026243;29;20065;-86
2023/10/05 07:09:16;;;;;;;4.43;4.20;;;;;;;;;;6022659;29;20077;-86
2023/10/05 07:12:19;;;;;;;4.00;3.80;;;;;;;;;;6020090;29;20045;-89
2023/10/05 07:15:21;;;;;;;3.35;3.25;;;;;;;;;;6020089;29;20312;-87
2023/10/05 07:18:24;;;;;;;12.77;3.63;;;;;;;;;;6019513;29;20075;-88
2023/10/05 07:21:26;;;;;;;3.25;3.15;;;;;;;;;;6019135;29;20060;-87
2023/10/05 07:24:29;;;;;;;3.78;3.65;;;;;;;;;;6029078;29;20099;-87
2023/10/05 07:27:30;;;;;;;3.55;3.45;;;;;;;;;;6044251;29;20509;-87
2023/10/05 07:30:32;;;;;;;3.35;3.25;;;;;;;;;;6025609;29;20389;-86
2023/10/05 07:33:35;;;;;;;3.40;3.30;;;;;;;;;;6028843;29;20049;-87
2023/10/05 07:36:37;;;;;;;5.95;5.65;;;;;;;;;;6020317;29;20061;-86
2023/10/05 07:39:42;;;;;;;3.60;3.50;;;;;;;;;;6023944;29;20049;-84
2023/10/05 07:42:44;;;;;;;2.92;2.72;;;;;;;;;;6008910;29;20084;-86
2023/10/05 07:45:46;;;;;;;3.38;3.28;;;;;;;;;;6023989;29;20209;-86
2023/10/05 07:48:48;;;;;;;3.55;3.45;;;;;;;;;;6034179;29;20136;-85
2023/10/05 07:51:49;;;;;;;3.80;3.60;;;;;;;;;;6043658;29;20060;-86
2023/10/05 07:54:52;;;;;;;3.17;3.08;;;;;;;;;;6022644;29;20493;-85
2023/10/05 07:57:54;;;;;;;3.78;3.58;;;;;;;;;;6025518;29;20038;-86
2023/10/05 08:00:56;;;;;;;4.97;4.68;;;;;;;;;;6002897;29;20072;-88
2023/10/05 08:03:58;;;;;;;3.15;3.05;;;;;;;;;;6019401;29;20046;-86
2023/10/05 08:06:59;;;;;;;3.03;2.92;;;;;;;;;;6017560;29;20045;-85
2023/10/05 08:10:03;;;;;;;18.42;3.67;;;;;;;;;;6024457;29;20037;-86
2023/10/05 08:13:05;;;;;;;3.10;3.00;;;;;;;;;;6016853;29;20119;-85
2023/10/05 08:16:08;;;;;;;4.00;3.40;;;;;;;;;;6020940;29;20037;-85
2023/10/05 08:19:10;;;;;;;4.20;3.95;;;;;;;;;;6022962;29;20046;-86
2023/10/05 08:22:13;;;;;;;4.00;3.80;;;;;;;;;;6027169;29;20197;-86
2023/10/05 08:25:16;;;;;;;3.30;3.20;;;;;;;;;;6028084;29;20496;-86
2023/10/05 08:28:20;;;;;;;4.18;3.97;;;;;;;;;;6010846;29;20050;-86
2023/10/05 08:31:26;;;;;;;7.43;3.97;;;;;;;;;;6026130;29;20155;-86
2023/10/05 08:34:32;;;;;;;3.30;3.20;;;;;;;;;;6027335;29;20424;-86
2023/10/05 08:37:37;;;;;;;4.90;4.80;;;;;;;;;;6024193;29;20049;-86
2023/10/05 08:40:40;;;;;;;3.53;3.42;;;;;;;;;;6016026;29;20054;-86
2023/10/05 08:43:46;;;;;;;3.42;3.33;;;;;;;;;;6023367;29;20235;-86
2023/10/05 08:46:48;;;;;;;3.17;3.08;;;;;;;;;;6009356;29;20033;-86
2023/10/05 08:49:51;;;;;;;5.28;3.70;;;;;;;;;;6026070;29;20049;-86
2023/10/05 08:52:52;;;;;;;3.70;3.38;;;;;;;;;;6025176;29;20057;-86
2023/10/05 08:55:54;;;;;;;3.28;3.17;;;;;;;;;;6016486;29;20046;-87
2023/10/05 08:58:59;;;;;;;2.97;2.88;;;;;;;;;;6027420;29;20053;-85
2023/10/05 09:02:01;;;;;;;3.85;3.75;;;;;;;;;;6030909;29;20049;-86
2023/10/05 09:05:07;;;;;;;3.22;3.13;;;;;;;;;;6025275;29;20041;-87
2023/10/05 09:08:09;;;;;;;3.17;3.08;;;;;;;;;;6024026;29;20049;-85
2023/10/05 09:11:14;;;;;;;3.42;3.33;;;;;;;;;;6018056;29;20049;-86
2023/10/05 09:14:27;;;;;;;2.92;2.85;;;;;;;;;;6024762;29;20056;-85
2023/10/05 09:17:30;;;;;;;3.30;3.20;;;;;;;;;;6034944;29;20120;-89
2023/10/05 09:20:35;;;;;;;2.80;2.70;;;;;;;;;;6032257;29;20046;-86
2023/10/05 09:23:37;;;;;;;2.95;2.85;;;;;;;;;;6022181;29;20077;-88
2023/10/05 09:26:45;;;;;;;3.22;3.13;;;;;;;;;;6029588;29;20068;-86
2023/10/05 09:29:51;;;;;;;3.22;3.13;;;;;;;;;;6028191;29;20045;-86
2023/10/05 09:33:06;;;;;;;3.08;2.97;;;;;;;;;;6025938;29;20056;-87
2023/10/05 09:36:20;;;;;;;14.15;3.85;;;;;;;;;;6021325;29;20051;-86
2023/10/05 09:39:26;;;;;;;3.30;3.20;;;;;;;;;;6028115;29;20054;-87
2023/10/05 09:42:28;;;;;;;3.63;3.53;;;;;;;;;;6015963;29;20041;-87
2023/10/05 09:45:31;;;;;;;3.70;3.60;;;;;;;;;;6027413;29;20046;-85
2023/10/05 09:48:37;;;;;;;3.63;2.83;;;;;;;;;;6044703;29;20454;-88
2023/10/05 09:51:42;;;;;;;3.10;3.00;;;;;;;;;;6035252;29;20067;-86
2023/10/05 09:54:47;;;;;;;3.20;3.10;;;;;;;;;;6027934;29;20520;-87
2023/10/05 09:57:51;;;;;;;3.63;3.53;;;;;;;;;;6024888;29;20065;-86
2023/10/05 10:00:55;;;;;;;3.58;3.47;;;;;;;;;;6027460;29;20054;-86
2023/10/05 10:03:59;;;;;;;3.45;3.35;;;;;;;;;;6032053;29;20048;-86
2023/10/05 10:07:03;;;;;;;4.30;4.10;;;;;;;;;;6021178;29;20054;-87
2023/10/05 10:10:05;;;;;;;3.90;3.55;;;;;;;;;;6033343;29;20045;-86
2023/10/05 10:13:11;;;;;;;3.78;3.67;;;;;;;;;;6024969;29;20552;-86
2023/10/05 10:16:16;;;;;;;4.55;4.28;;;;;;;;;;6022986;29;20050;-86
2023/10/05 10:19:19;;;;;;;3.35;3.25;;;;;;;;;;6027630;29;20186;-86
2023/10/05 10:22:28;;;;;;;3.10;3.00;;;;;;;;;;6018921;29;20106;-86
2023/10/05 10:25:30;;;;;;;3.83;3.63;;;;;;;;;;6023591;29;20045;-86
2023/10/05 10:32:22;;;;;;;3.30;3.20;;;;;;;;;;6021239;29;20080;-86
2023/10/05 10:35:27;;;;;;;3.83;3.53;;;;;;;;;;6024758;29;20079;-84
2023/10/05 10:38:29;;;;;;;3.92;3.83;;;;;;;;;;6019912;29;20417;-86
2023/10/05 10:41:31;;;;;;;3.45;3.35;;;;;;;;;;6028506;29;20049;-85
2023/10/05 10:47:56;;;;;;;3.50;3.40;;;;;;;;;;6019216;29;20049;-86
2023/10/05 10:51:10;;;;;;;3.53;3.42;;;;;;;;;;6027295;29;20061;-86
2023/10/05 10:54:15;;;;;;;4.10;4.00;;;;;;;;;;6026486;29;20049;-88
2023/10/05 10:57:21;;;;;;;3.50;3.40;;;;;;;;;;6027062;29;20050;-85
2023/10/05 11:03:49;;;;;;;3.58;3.47;;;;;;;;;;6018247;29;20053;-86
2023/10/05 11:07:05;;;;;;;3.78;3.67;;;;;;;;;;6032776;29;20060;-86
2023/10/05 11:10:15;;;;;;;3.72;3.63;;;;;;;;;;6036942;29;20407;-87
2023/10/05 11:13:24;;;;;;;3.47;3.38;;;;;;;;;;6006380;29;20500;-86
2023/10/05 11:16:35;;;;;;;3.58;3.47;;;;;;;;;;6024174;29;20054;-87
2023/10/05 11:19:38;;;;;;;3.78;3.67;;;;;;;;;;6019203;29;20509;-85
2023/10/05 11:22:42;;;;;;;4.65;3.42;;;;;;;;;;6024253;29;20088;-85
2023/10/05 11:25:46;;;;;;;3.60;3.50;;;;;;;;;;6020778;29;20473;-87
2023/10/05 11:29:07;;;;;;;3.08;2.97;;;;;;;;;;6021493;29;20040;-87
2023/10/05 11:32:12;;;;;;;3.17;3.08;;;;;;;;;;6019101;29;20045;-86
2023/10/05 11:35:42;;;;;;;5.70;3.78;;;;;;;;;;6019248;29;20120;-87
2023/10/05 11:38:44;;;;;;;4.05;3.95;;;;;;;;;;6023998;29;20041;-86
2023/10/05 11:41:46;;;;;;;4.07;3.88;;;;;;;;;;6015352;29;20124;-84
2023/10/05 11:44:57;;;;;;;3.97;3.88;;;;;;;;;;6015349;29;20102;-86
2023/10/05 11:48:11;;;;;;;3.78;3.67;;;;;;;;;;6029445;29;20433;-85
2023/10/05 11:51:20;;;;;;;3.65;3.55;;;;;;;;;;6023770;29;20576;-86
2023/10/05 11:54:24;;;;;;;3.10;3.00;;;;;;;;;;6010098;29;20137;-86
2023/10/05 11:57:26;;;;;;;3.20;3.10;;;;;;;;;;6018793;29;20076;-87
2023/10/05 12:00:31;;;;;;;3.33;3.22;;;;;;;;;;6021178;29;20042;-86
2023/10/05 12:03:33;;;;;;;3.47;3.38;;;;;;;;;;6020281;29;20459;-85
2023/10/05 12:06:37;;;;;;;3.42;3.33;;;;;;;;;;6020314;29;20049;-86
2023/10/05 12:09:43;;;;;;;3.33;3.22;;;;;;;;;;6024216;29;20182;-86
2023/10/05 12:12:50;;;;;;;3.20;3.10;;;;;;;;;;6038900;29;20049;-87
2023/10/05 12:15:52;;;;;;;3.30;3.20;;;;;;;;;;6015661;29;20309;-87
2023/10/05 12:18:54;;;;;;;3.08;2.97;;;;;;;;;;6018686;29;20053;-87
2023/10/05 12:21:56;;;;;;;3.50;3.40;;;;;;;;;;6028597;29;20174;-85
2023/10/05 12:24:59;;;;;;;3.35;3.25;;;;;;;;;;6025592;29;20074;-87
2023/10/05 12:28:01;;;;;;;2.65;2.65;;;;;;;;;;6014851;29;20061;-86
2023/10/05 12:31:02;;;;;;;10.02;3.63;;;;;;;;;;6029328;29;20355;-87
2023/10/05 12:34:09;;;;;;;3.20;3.10;;;;;;;;;;6029266;29;20053;-85
2023/10/05 12:37:29;;;;;;;3.40;3.30;;;;;;;;;;6025198;29;20434;-86
2023/10/05 12:40:41;;;;;;;3.38;3.28;;;;;;;;;;6024823;29;20054;-85
2023/10/05 12:43:43;;;;;;;3.00;2.90;;;;;;;;;;6014362;29;20133;-85
2023/10/05 12:46:46;;;;;;;3.03;2.92;;;;;;;;;;6023409;29;20744;-86
2023/10/05 12:49:48;;;;;;;3.88;3.65;;;;;;;;;;6021993;29;20124;-85
2023/10/05 12:52:50;;;;;;;3.25;3.15;;;;;;;;;;6031977;29;20120;-85
2023/10/05 12:55:52;;;;;;;3.22;3.13;;;;;;;;;;6028158;29;20162;-87
2023/10/05 12:58:54;;;;;;;4.75;4.22;;;;;;;;;;6030539;29;20042;-84
2023/10/05 13:02:03;;;;;;;11.18;3.65;;;;;;;;;;6023483;29;20042;-86
2023/10/05 13:05:05;;;;;;;3.20;3.10;;;;;;;;;;6039987;29;20134;-85
2023/10/05 13:08:27;;;;;;;3.13;3.03;;;;;;;;;;6024966;29;20037;-85
2023/10/05 13:11:29;;;;;;;8.02;3.33;;;;;;;;;;6022950;29;20049;-86
2023/10/05 13:14:32;;;;;;;3.30;3.20;;;;;;;;;;6024419;29;20080;-86
2023/10/05 13:17:38;;;;;;;3.30;3.20;;;;;;;;;;6021340;29;20050;-84
2023/10/05 13:20:42;;;;;;;3.35;3.25;;;;;;;;;;6026567;29;20169;-85
2023/10/05 13:23:45;;;;;;;2.90;2.80;;;;;;;;;;6024683;29;20052;-86
2023/10/05 13:26:49;;;;;;;3.25;3.15;;;;;;;;;;6023642;29;20053;-85
2023/10/05 13:29:51;;;;;;;3.20;3.10;;;;;;;;;;6038164;29;20057;-85
2023/10/05 13:32:57;;;;;;;3.58;3.47;;;;;;;;;;6026764;29;20209;-86
2023/10/05 13:36:06;;;;;;;3.20;3.10;;;;;;;;;;6035232;29;20052;-87
2023/10/05 13:39:20;;;;;;;3.40;3.30;;;;;;;;;;6012884;29;20042;-86
2023/10/05 13:42:32;;;;;;;2.90;2.80;;;;;;;;;;6027215;29;20097;-85
2023/10/05 13:45:34;;;;;;;3.47;3.38;;;;;;;;;;6025951;29;20504;-86
2023/10/05 13:48:39;;;;;;;3.38;3.17;;;;;;;;;;6027731;29;20041;-85
2023/10/05 13:51:41;;;;;;;2.85;2.75;;;;;;;;;;6028442;29;20050;-85
2023/10/05 13:54:43;;;;;;;2.72;2.72;;;;;;;;;;6023820;29;20052;-86
2023/10/05 13:57:47;;;;;;;3.00;2.85;;;;;;;;;;6030134;29;20057;-85
2023/10/05 14:00:49;;;;;;;3.05;2.95;;;;;;;;;;6031322;29;20097;-86
2023/10/05 14:03:53;;;;;;;3.40;3.30;;;;;;;;;;6030402;29;20086;-85
2023/10/05 14:06:56;;;;;;;3.70;3.60;;;;;;;;;;6026581;29;20409;-85
2023/10/05 14:09:58;;;;;;;3.10;3.00;;;;;;;;;;6028482;29;20057;-85
2023/10/05 14:13:00;;;;;;;3.88;3.75;;;;;;;;;;6030474;29;20038;-85
2023/10/05 14:16:02;;;;;;;3.22;3.08;;;;;;;;;;6019163;29;20163;-85
2023/10/05 14:19:04;;;;;;;2.92;2.83;;;;;;;;;;6029727;29;20515;-85
2023/10/05 14:22:09;;;;;;;3.83;3.63;;;;;;;;;;6021887;29;20044;-85
2023/10/05 14:25:23;;;;;;;3.00;2.90;;;;;;;;;;6024929;29;20045;-85
2023/10/05 14:28:25;;;;;;;2.90;2.80;;;;;;;;;;6020511;29;20045;-85
2023/10/05 14:31:29;;;;;;;3.95;3.85;;;;;;;;;;6026524;29;20046;-85
2023/10/05 14:34:35;;;;;;;6.43;3.22;;;;;;;;;;6027875;29;20042;-85
2023/10/05 14:37:42;;;;;;;3.35;3.08;;;;;;;;;;6027881;29;20050;-85
2023/10/05 14:40:45;;;;;;;3.45;3.35;;;;;;;;;;6031867;29;20041;-86
2023/10/05 14:43:46;;;;;;;3.28;3.15;;;;;;;;;;6023326;29;20049;-85
2023/10/05 14:46:49;;;;;;;3.00;2.90;;;;;;;;;;6020164;29;20050;-86
2023/10/05 14:49:52;;;;;;;3.20;3.10;;;;;;;;;;6023934;29;20544;-86
2023/10/05 14:52:55;;;;;;;3.53;3.42;;;;;;;;;;6024792;29;20045;-85
2023/10/05 14:55:57;;;;;;;3.17;3.08;;;;;;;;;;6020718;29;20042;-86
2023/10/05 14:58:59;;;;;;;3.22;3.13;;;;;;;;;;6022919;29;20080;-86
2023/10/05 15:02:01;;;;;;;3.35;3.25;;;;;;;;;;6025729;29;20053;-86
2023/10/05 15:05:03;;;;;;;3.88;3.78;;;;;;;;;;6013553;29;20113;-90
2023/10/05 15:08:05;;;;;;;3.30;3.20;;;;;;;;;;6040639;29;20058;-90
2023/10/05 15:11:06;;;;;;;3.40;3.30;;;;;;;;;;6030503;29;20165;-90
2023/10/05 15:14:09;;;;;;;3.00;2.90;;;;;;;;;;6021463;29;20041;-89
2023/10/05 15:17:11;;;;;;;3.60;3.50;;;;;;;;;;6024110;29;20041;-89
2023/10/05 15:20:22;;;;;;;3.20;3.10;;;;;;;;;;6032119;29;20075;-88
2023/10/05 15:23:24;;;;;;;3.60;3.50;;;;;;;;;;6020824;29;20045;-88
2023/10/05 15:26:26;;;;;;;3.28;3.17;;;;;;;;;;6015043;29;20049;-88
2023/10/05 15:29:29;;;;;;;3.28;3.17;;;;;;;;;;6032137;29;20054;-88
2023/10/05 15:32:31;;;;;;;3.08;2.97;;;;;;;;;;6018400;29;20053;-89
2023/10/05 15:35:33;;;;;;;3.13;3.03;;;;;;;;;;6020326;29;20081;-89
2023/10/05 15:38:35;;;;;;;3.20;3.10;;;;;;;;;;6022443;29;20046;-89
2023/10/05 15:41:37;;;;;;;3.28;3.17;;;;;;;;;;6018441;29;20140;-88
2023/10/05 15:44:39;;;;;;;3.53;3.42;;;;;;;;;;6016071;29;20050;-88
2023/10/05 15:47:47;;;;;;;3.30;3.20;;;;;;;;;;6026314;29;20068;-89
2023/10/05 15:50:49;;;;;;;3.40;3.30;;;;;;;;;;6022187;29;20044;-90
2023/10/05 15:53:56;;;;;;;3.35;3.25;;;;;;;;;;6020021;29;20077;-88
2023/10/05 15:57:03;;;;;;;3.70;3.60;;;;;;;;;;6016777;29;20049;-88
2023/10/05 16:00:15;;;;;;;3.63;3.53;;;;;;;;;;6020154;29;20045;-88
2023/10/05 16:03:17;;;;;;;3.25;3.15;;;;;;;;;;6027701;29;20042;-88
2023/10/05 16:06:25;;;;;;;3.40;3.30;;;;;;;;;;6026215;29;20053;-88
2023/10/05 16:09:27;;;;;;;2.85;2.80;;;;;;;;;;6023734;29;20135;-88
2023/10/05 16:12:29;;;;;;;3.42;3.33;;;;;;;;;;6019675;29;20042;-88
2023/10/05 16:15:34;;;;;;;3.72;2.90;;;;;;;;;;6016920;29;20094;-88
2023/10/05 16:18:37;;;;;;;3.97;3.80;;;;;;;;;;6011658;29;20061;-88
2023/10/05 16:21:39;;;;;;;3.80;3.60;;;;;;;;;;6029014;29;20062;-89
2023/10/05 16:24:44;;;;;;;3.10;3.00;;;;;;;;;;6028485;29;20053;-90
2023/10/05 16:27:47;;;;;;;2.78;2.67;;;;;;;;;;6021863;29;20053;-95
2023/10/05 16:30:49;;;;;;;3.03;2.92;;;;;;;;;;6024075;29;20058;-93
2023/10/05 16:33:52;;;;;;;3.67;3.58;;;;;;;;;;6029615;29;20154;-95
2023/10/05 16:36:54;;;;;;;3.60;3.50;;;;;;;;;;6030480;29;20050;-94
2023/10/05 16:39:58;;;;;;;3.65;3.55;;;;;;;;;;6034077;29;20049;-95
2023/10/05 16:43:02;;;;;;;3.92;3.83;;;;;;;;;;6019852;29;20504;-96
2023/10/05 16:46:08;;;;;;;3.20;3.10;;;;;;;;;;6024548;29;20413;-95
2023/10/05 16:49:11;;;;;;;3.28;3.17;;;;;;;;;;6015927;29;20409;-96
2023/10/05 16:52:13;;;;;;;3.50;3.40;;;;;;;;;;6026637;29;20186;-95
2023/10/05 16:55:16;;;;;;;3.58;3.47;;;;;;;;;;6029961;29;20055;-95
2023/10/05 16:58:18;;;;;;;3.30;3.20;;;;;;;;;;6027320;29;20614;-95
2023/10/05 17:01:20;;;;;;;3.15;3.05;;;;;;;;;;6020181;29;20087;-95
2023/10/05 17:04:23;;;;;;;2.90;2.80;;;;;;;;;;6021968;29;20056;-95
2023/10/05 17:07:25;;;;;;;2.92;2.83;;;;;;;;;;6020681;29;20053;-96
2023/10/05 17:10:27;;;;;;;2.40;2.40;;;;;;;;;;6025020;29;20069;-95
2023/10/05 17:13:29;;;;;;;2.70;2.70;;;;;;;;;;6037157;29;20113;-96
2023/10/05 17:16:31;;;;;;;2.70;2.60;;;;;;;;;;6027470;29;20060;-96
2023/10/05 17:19:33;;;;;;;3.20;2.97;;;;;;;;;;6027122;29;20092;-95
2023/10/05 17:22:35;;;;;;;2.97;2.88;;;;;;;;;;6045394;29;20602;-96
2023/10/05 17:25:40;;;;;;;2.58;2.58;;;;;;;;;;6023285;29;20195;-96
2023/10/05 17:28:42;;;;;;;2.45;2.45;;;;;;;;;;6015993;29;20077;-95
2023/10/05 17:31:44;;;;;;;4.10;2.63;;;;;;;;;;6022722;29;20064;-96
2023/10/05 17:34:49;;;;;;;2.10;2.10;;;;;;;;;;6024575;29;20086;-96
2023/10/05 17:37:51;;;;;;;2.78;2.67;;;;;;;;;;6015190;29;20042;-96
2023/10/05 17:40:57;;;;;;;2.50;2.45;;;;;;;;;;6001018;29;20792;-95
2023/10/05 17:44:00;;;;;;;2.90;2.70;;;;;;;;;;6022408;29;20046;-94
2023/10/05 17:47:02;;;;;;;2.75;2.65;;;;;;;;;;6022196;29;20056;-96
2023/10/05 17:50:04;;;;;;;2.70;2.63;;;;;;;;;;6036773;29;20773;-95
2023/10/05 17:53:06;;;;;;;3.25;3.15;;;;;;;;;;6023372;29;20112;-96
2023/10/05 17:56:09;;;;;;;2.95;2.85;;;;;;;;;;6030804;29;20500;-96
2023/10/05 17:59:12;;;;;;;2.90;2.80;;;;;;;;;;6031612;29;20044;-96
2023/10/05 18:02:20;;;;;;;2.90;2.80;;;;;;;;;;6026040;29;20073;-94
2023/10/05 18:05:21;;;;;;;3.22;3.13;;;;;;;;;;6027890;29;20053;-95
2023/10/05 18:08:30;;;;;;;3.08;2.97;;;;;;;;;;6027074;29;20125;-96
2023/10/05 18:11:31;;;;;;;10.15;2.97;;;;;;;;;;6024735;29;20061;-94
2023/10/05 18:14:33;;;;;;;2.42;2.42;;;;;;;;;;6027100;29;20048;-96
2023/10/05 18:17:35;;;;;;;2.45;2.45;;;;;;;;;;6042964;29;20046;-95
2023/10/05 18:20:40;;;;;;;2.30;2.30;;;;;;;;;;6059436;29;20049;-96
2023/10/05 18:23:42;;;;;;;2.40;2.30;;;;;;;;;;6068970;29;20037;-96
2023/10/05 18:26:49;;;;;;;2.70;2.63;;;;;;;;;;6048160;29;20050;-96
2023/10/05 18:29:52;;;;;;;2.55;2.47;;;;;;;;;;6023583;29;20136;-96
2023/10/05 18:32:54;;;;;;;2.67;2.58;;;;;;;;;;6028068;29;20049;-95
2023/10/05 18:36:03;;;;;;;2.58;2.58;;;;;;;;;;6035449;29;20420;-96
2023/10/05 18:39:12;;;;;;;2.40;2.40;;;;;;;;;;6036252;29;20057;-96
2023/10/05 18:42:14;;;;;;;2.72;2.63;;;;;;;;;;6063098;29;20049;-96